createdAt,value
2023-03-16T00:00:13.695Z,2.40
2023-03-16T00:02:43.770Z,2.50
2023-03-16T00:05:12.822Z,2.55
2023-03-16T00:07:41.861Z,2.60
2023-03-16T00:10:09.916Z,2.50
2023-03-16T00:12:36.497Z,2.97
2023-03-16T00:15:04.505Z,2.47
2023-03-16T00:17:31.098Z,2.55
2023-03-16T00:19:57.686Z,2.47
2023-03-16T00:22:28.730Z,2.30
2023-03-16T00:24:56.074Z,2.63
2023-03-16T00:27:23.952Z,2.83
2023-03-16T00:29:55.703Z,2.72
2023-03-16T00:32:28.076Z,2.72
2023-03-16T00:34:55.415Z,2.70
2023-03-16T00:37:23.888Z,2.83
2023-03-16T00:39:51.351Z,3.28
2023-03-16T00:42:19.344Z,2.80
2023-03-16T00:44:45.987Z,2.97
2023-03-16T00:47:14.354Z,3.13
2023-03-16T00:49:43.143Z,2.70
2023-03-16T00:52:15.503Z,3.13
2023-03-16T00:54:44.057Z,2.80
2023-03-16T00:57:12.813Z,3.10
2023-03-16T00:59:39.863Z,2.87
2023-03-16T01:02:07.938Z,2.72
2023-03-16T01:04:35.882Z,2.70
2023-03-16T01:07:03.912Z,3.00
2023-03-16T01:09:31.355Z,3.13
2023-03-16T01:11:57.906Z,3.27
2023-03-16T01:14:24.470Z,3.22
2023-03-16T01:16:51.840Z,2.70
2023-03-16T01:19:18.719Z,2.80
2023-03-16T01:21:45.462Z,2.58
2023-03-16T01:24:12.051Z,3.17
2023-03-16T01:26:40.245Z,2.97
2023-03-16T01:29:06.769Z,3.00
2023-03-16T01:31:33.321Z,2.55
2023-03-16T01:34:00.855Z,2.55
2023-03-16T01:36:29.363Z,3.10
2023-03-16T01:39:00.322Z,2.78
2023-03-16T01:41:31.200Z,3.40
2023-03-16T01:43:58.190Z,3.38
2023-03-16T01:46:28.158Z,3.20
2023-03-16T01:49:10.353Z,2.77
2023-03-16T01:51:45.452Z,2.90
2023-03-16T01:54:33.821Z,3.10
2023-03-16T01:57:18.181Z,2.90
2023-03-16T01:59:51.560Z,2.90
2023-03-16T02:02:23.866Z,3.40
2023-03-16T02:05:10.345Z,2.80
2023-03-16T02:07:42.398Z,3.00
2023-03-16T02:10:12.136Z,2.90
2023-03-16T02:12:38.905Z,2.72
2023-03-16T02:15:06.483Z,2.55
2023-03-16T02:17:35.902Z,2.42
2023-03-16T02:20:13.600Z,2.80
2023-03-16T02:22:45.130Z,2.63
2023-03-16T02:25:14.081Z,2.50
2023-03-16T02:27:55.771Z,3.40
2023-03-16T02:30:23.031Z,3.03
2023-03-16T02:32:57.924Z,3.30
2023-03-16T02:35:25.216Z,3.50
2023-03-16T02:37:52.643Z,2.83
2023-03-16T02:40:24.340Z,2.55
2023-03-16T02:43:02.873Z,2.97
2023-03-16T02:45:38.021Z,3.33
2023-03-16T02:48:09.432Z,2.83
2023-03-16T02:50:37.008Z,2.92
2023-03-16T02:53:03.507Z,2.78
2023-03-16T02:55:30.243Z,2.92
2023-03-16T02:57:57.256Z,2.90
2023-03-16T03:00:24.169Z,2.95
2023-03-16T03:02:52.625Z,3.55
2023-03-16T03:05:19.252Z,3.27
2023-03-16T03:07:46.068Z,3.53
2023-03-16T03:10:13.270Z,2.50
2023-03-16T03:12:39.799Z,3.28
2023-03-16T03:15:09.579Z,3.25
2023-03-16T03:18:14.725Z,3.28
2023-03-16T03:20:41.684Z,3.05
2023-03-16T03:23:08.231Z,3.42
2023-03-16T03:25:34.977Z,3.00
2023-03-16T03:28:05.594Z,3.38
2023-03-16T03:30:32.526Z,2.87
2023-03-16T03:32:59.366Z,3.13
2023-03-16T03:35:26.033Z,3.00
2023-03-16T03:37:53.660Z,3.10
2023-03-16T03:40:21.496Z,3.17
2023-03-16T03:42:54.630Z,3.40
2023-03-16T03:45:22.759Z,2.80
2023-03-16T03:47:49.757Z,3.35
2023-03-16T03:50:19.795Z,3.15
2023-03-16T03:52:53.637Z,3.35
2023-03-16T03:55:20.514Z,3.08
2023-03-16T03:57:46.988Z,2.60
2023-03-16T04:00:14.628Z,2.90
2023-03-16T04:02:42.492Z,3.78
2023-03-16T04:05:18.036Z,3.15
2023-03-16T04:07:45.733Z,3.70
2023-03-16T04:10:13.750Z,3.60
2023-03-16T04:12:42.667Z,4.05
2023-03-16T04:15:12.472Z,3.10
2023-03-16T04:17:55.243Z,3.17
2023-03-16T04:20:22.423Z,3.60
2023-03-16T04:22:49.393Z,3.83
2023-03-16T04:25:17.714Z,2.90
2023-03-16T04:27:46.669Z,3.35
2023-03-16T04:30:15.178Z,3.30
2023-03-16T04:32:47.507Z,3.30
2023-03-16T04:35:19.026Z,3.05
2023-03-16T04:37:52.667Z,2.80
2023-03-16T04:40:23.611Z,3.88
2023-03-16T04:42:58.026Z,2.80
2023-03-16T04:45:24.617Z,3.60
2023-03-16T04:47:54.532Z,3.00
2023-03-16T04:50:21.169Z,3.03
2023-03-16T04:52:51.787Z,2.75
2023-03-16T04:55:19.208Z,3.28
2023-03-16T04:57:45.910Z,3.07
2023-03-16T05:00:19.056Z,3.53
2023-03-16T05:03:05.874Z,3.90
2023-03-16T05:05:33.100Z,3.28
2023-03-16T05:07:59.817Z,3.63
2023-03-16T05:10:28.641Z,3.50
2023-03-16T05:12:56.213Z,2.80
2023-03-16T05:15:22.963Z,4.18
2023-03-16T05:18:03.039Z,3.88
2023-03-16T05:20:30.374Z,4.25
2023-03-16T05:23:00.087Z,3.70
2023-03-16T05:25:29.915Z,3.72
2023-03-16T05:27:58.787Z,4.13
2023-03-16T05:30:45.165Z,3.72
2023-03-16T05:33:16.627Z,3.78
2023-03-16T05:35:47.659Z,3.72
2023-03-16T05:38:15.795Z,3.40
2023-03-16T05:40:43.805Z,3.47
2023-03-16T05:43:34.370Z,3.83
2023-03-16T05:46:01.286Z,3.92
2023-03-16T05:48:28.024Z,3.60
2023-03-16T05:50:57.766Z,3.47
2023-03-16T05:53:29.392Z,3.33
2023-03-16T05:56:02.684Z,3.58
2023-03-16T05:58:33.818Z,3.20
2023-03-16T06:01:05.308Z,3.92
2023-03-16T06:03:31.957Z,3.72
2023-03-16T06:06:00.121Z,3.70
2023-03-16T06:08:30.933Z,4.00
2023-03-16T06:11:06.652Z,3.35
2023-03-16T06:13:33.594Z,3.40
2023-03-16T06:16:00.373Z,3.17
2023-03-16T06:18:27.011Z,3.35
2023-03-16T06:20:53.586Z,3.55
2023-03-16T06:23:21.776Z,3.58
2023-03-16T06:25:51.124Z,3.28
2023-03-16T06:28:21.747Z,3.67
2023-03-16T06:30:48.680Z,3.30
2023-03-16T06:33:15.207Z,2.75
2023-03-16T06:35:42.003Z,3.65
2023-03-16T06:38:18.418Z,3.60
2023-03-16T06:40:58.600Z,2.33
2023-03-16T06:43:25.195Z,3.08
2023-03-16T06:45:52.208Z,3.53
2023-03-16T06:48:19.341Z,3.30
2023-03-16T06:50:46.777Z,2.90
2023-03-16T06:53:16.300Z,2.88
2023-03-16T06:55:43.155Z,2.85
2023-03-16T06:58:11.006Z,3.30
2023-03-16T07:00:38.101Z,2.63
2023-03-16T07:03:04.628Z,2.70
2023-03-16T07:05:33.018Z,2.88
2023-03-16T07:08:00.333Z,2.80
2023-03-16T07:10:27.859Z,2.47
2023-03-16T07:12:55.324Z,2.97
2023-03-16T07:15:22.013Z,2.97
2023-03-16T07:17:48.950Z,3.10
2023-03-16T07:20:15.551Z,3.28
2023-03-16T07:22:43.249Z,2.95
2023-03-16T07:25:13.913Z,2.70
2023-03-16T07:27:47.499Z,3.13
2023-03-16T07:30:19.810Z,3.33
2023-03-16T07:32:49.040Z,2.90
2023-03-16T07:35:17.159Z,3.03
2023-03-16T07:37:44.920Z,2.97
2023-03-16T07:40:12.035Z,2.80
2023-03-16T07:42:38.532Z,3.13
2023-03-16T07:45:09.976Z,3.38
2023-03-16T07:47:36.568Z,2.97
2023-03-16T07:50:11.725Z,3.10
2023-03-16T07:52:41.884Z,2.97
2023-03-16T07:55:08.717Z,3.65
2023-03-16T07:57:35.325Z,3.75
2023-03-16T08:00:05.282Z,2.95
2023-03-16T08:02:39.823Z,3.17
2023-03-16T08:05:12.787Z,3.47
2023-03-16T08:07:43.785Z,3.17
2023-03-16T08:10:18.755Z,3.95
2023-03-16T08:13:04.607Z,3.03
2023-03-16T08:15:35.420Z,2.35
2023-03-16T08:18:12.627Z,2.83
2023-03-16T08:20:39.465Z,2.70
2023-03-16T08:23:06.410Z,3.53
2023-03-16T08:25:40.570Z,3.70
2023-03-16T08:28:15.773Z,3.15
2023-03-16T08:30:51.041Z,3.13
2023-03-16T08:33:29.470Z,3.95
2023-03-16T08:35:56.254Z,3.60
2023-03-16T08:38:23.099Z,3.50
2023-03-16T08:40:52.195Z,3.60
2023-03-16T08:43:20.739Z,3.92
2023-03-16T08:45:48.643Z,3.65
2023-03-16T08:48:18.322Z,4.18
2023-03-16T08:50:48.541Z,3.80
2023-03-16T08:53:15.264Z,4.07
2023-03-16T08:55:42.381Z,3.50
2023-03-16T08:58:10.515Z,3.20
2023-03-16T09:00:37.649Z,3.05
2023-03-16T09:03:05.905Z,3.63
2023-03-16T09:05:32.998Z,3.80
2023-03-16T09:08:00.280Z,3.33
2023-03-16T09:10:27.822Z,3.95
2023-03-16T09:12:54.545Z,3.55
2023-03-16T09:15:21.634Z,3.08
2023-03-16T09:17:48.568Z,4.15
2023-03-16T09:20:26.206Z,3.50
2023-03-16T09:22:55.215Z,3.40
2023-03-16T09:25:22.766Z,4.00
2023-03-16T09:27:49.284Z,3.58
2023-03-16T09:30:16.983Z,3.30
2023-03-16T09:32:43.842Z,3.23
2023-03-16T09:35:10.443Z,3.20
2023-03-16T09:37:44.932Z,3.20
2023-03-16T09:40:26.585Z,3.55
2023-03-16T09:43:05.707Z,3.10
2023-03-16T09:45:41.510Z,2.70
2023-03-16T09:48:10.472Z,3.45
2023-03-16T09:50:48.353Z,3.03
2023-03-16T09:53:29.680Z,3.17
2023-03-16T09:56:03.652Z,2.75
2023-03-16T09:58:32.183Z,3.10
2023-03-16T10:01:14.472Z,3.38
2023-03-16T10:03:50.832Z,2.72
2023-03-16T10:06:18.016Z,3.53
2023-03-16T10:08:53.101Z,3.17
2023-03-16T10:11:29.606Z,3.67
2023-03-16T10:13:56.437Z,3.00
2023-03-16T10:16:38.207Z,3.25
2023-03-16T10:19:36.803Z,2.35
2023-03-16T10:22:15.402Z,2.72
2023-03-16T10:24:59.914Z,2.73
2023-03-16T10:27:42.052Z,3.03
2023-03-16T10:30:19.810Z,2.88
2023-03-16T10:32:47.168Z,2.83
2023-03-16T10:35:42.767Z,3.20
2023-03-16T10:38:26.463Z,2.90
2023-03-16T10:40:54.150Z,2.80
2023-03-16T10:43:20.791Z,4.07
2023-03-16T10:45:47.392Z,4.28
2023-03-16T10:48:17.023Z,3.90
2023-03-16T10:50:44.611Z,3.40
2023-03-16T10:53:19.813Z,3.65
2023-03-16T10:55:47.412Z,3.00
2023-03-16T10:58:25.302Z,3.45
2023-03-16T11:00:53.463Z,3.20
2023-03-16T11:03:32.330Z,3.30
2023-03-16T11:06:04.305Z,3.10
2023-03-16T11:08:37.362Z,3.00
2023-03-16T11:11:35.092Z,2.67
2023-03-16T11:14:04.777Z,3.00
2023-03-16T11:16:58.927Z,3.30
2023-03-16T11:19:35.797Z,2.63
2023-03-16T11:22:05.528Z,2.28
2023-03-16T11:24:59.259Z,2.75
2023-03-16T11:27:33.985Z,3.33
2023-03-16T11:30:20.064Z,3.23
2023-03-16T11:32:53.420Z,3.13
2023-03-16T11:35:27.472Z,2.50
2023-03-16T11:37:57.709Z,2.65
2023-03-16T11:40:48.958Z,2.85
2023-03-16T11:43:27.572Z,2.60
2023-03-16T11:46:11.457Z,3.28
2023-03-16T11:48:47.118Z,3.13
2023-03-16T11:51:28.736Z,2.80
2023-03-16T11:54:22.538Z,3.05
2023-03-16T11:57:22.345Z,3.40
2023-03-16T12:00:01.405Z,2.50
2023-03-16T12:02:55.545Z,3.38
2023-03-16T12:05:54.666Z,2.80
2023-03-16T12:08:38.650Z,3.35
2023-03-16T12:11:14.885Z,3.03
2023-03-16T12:14:12.717Z,3.45
2023-03-16T12:16:58.329Z,3.20
2023-03-16T12:19:58.896Z,3.20
2023-03-16T12:22:37.625Z,2.72
2023-03-16T12:25:17.136Z,3.07
2023-03-16T12:27:46.193Z,3.10
2023-03-16T12:30:49.086Z,2.95
2023-03-16T12:33:35.205Z,2.95
2023-03-16T12:36:22.719Z,3.40
2023-03-16T12:38:53.579Z,2.93
2023-03-16T12:41:29.268Z,2.78
2023-03-16T12:44:17.660Z,3.50
2023-03-16T12:47:20.431Z,2.97
2023-03-16T12:49:47.828Z,3.28
2023-03-16T12:52:14.867Z,3.40
2023-03-16T12:54:53.902Z,3.13
2023-03-16T12:57:27.136Z,3.10
2023-03-16T12:59:58.380Z,3.55
2023-03-16T13:02:30.060Z,3.05
2023-03-16T13:05:00.677Z,3.30
2023-03-16T13:07:31.126Z,3.00
2023-03-16T13:10:02.606Z,3.10
2023-03-16T13:12:32.926Z,3.05
2023-03-16T13:14:59.601Z,3.00
2023-03-16T13:17:29.980Z,3.07
2023-03-16T13:20:30.307Z,3.42
2023-03-16T13:23:38.749Z,2.90
2023-03-16T13:26:23.217Z,3.03
2023-03-16T13:28:54.996Z,2.42
2023-03-16T13:31:37.058Z,3.07
2023-03-16T13:34:07.582Z,3.53
2023-03-16T13:36:35.426Z,3.20
2023-03-16T13:39:14.219Z,2.75
2023-03-16T13:41:43.213Z,2.50
2023-03-16T13:44:15.097Z,3.13
2023-03-16T13:46:41.619Z,3.00
2023-03-16T13:49:12.304Z,3.15
2023-03-16T13:51:39.197Z,3.53
2023-03-16T13:54:21.750Z,2.80
2023-03-16T13:56:48.896Z,3.17
2023-03-16T13:59:17.780Z,3.13
2023-03-16T14:01:46.718Z,2.55
2023-03-16T14:04:17.802Z,2.33
2023-03-16T14:06:57.040Z,2.60
2023-03-16T14:09:28.587Z,2.53
2023-03-16T14:11:56.853Z,2.53
2023-03-16T14:14:36.677Z,2.33
2023-03-16T14:17:15.049Z,2.15
2023-03-16T14:20:00.185Z,2.22
2023-03-16T14:22:34.690Z,2.10
2023-03-16T14:25:04.666Z,2.50
2023-03-16T14:27:40.478Z,2.85
2023-03-16T14:30:24.270Z,2.70
2023-03-16T14:33:33.303Z,2.67
2023-03-16T14:36:07.733Z,2.50
2023-03-16T14:38:36.868Z,2.30
2023-03-16T14:41:08.696Z,2.33
2023-03-16T14:43:38.445Z,2.60
2023-03-16T14:46:07.263Z,2.70
2023-03-16T14:48:35.554Z,2.17
2023-03-16T14:51:04.401Z,2.40
2023-03-16T14:53:31.744Z,2.60
2023-03-16T14:55:59.347Z,2.17
2023-03-16T14:58:26.623Z,2.15
2023-03-16T15:00:54.727Z,2.20
2023-03-16T15:03:28.931Z,2.30
2023-03-16T15:05:55.875Z,2.35
2023-03-16T15:08:28.577Z,2.45
2023-03-16T15:10:57.556Z,2.35
2023-03-16T15:13:42.391Z,2.60
2023-03-16T15:16:13.937Z,2.30
2023-03-16T15:18:41.760Z,2.13
2023-03-16T15:21:13.408Z,2.72
2023-03-16T15:23:42.830Z,2.50
2023-03-16T15:26:12.001Z,2.00
2023-03-16T15:28:40.152Z,2.05
2023-03-16T15:31:07.596Z,2.30
2023-03-16T15:33:34.496Z,2.22
2023-03-16T15:36:07.071Z,2.22
2023-03-16T15:38:36.723Z,2.13
2023-03-16T15:41:03.474Z,2.50
2023-03-16T15:43:30.935Z,2.08
2023-03-16T15:45:59.796Z,2.10
2023-03-16T15:48:27.139Z,2.60
2023-03-16T15:51:17.827Z,1.83
2023-03-16T15:53:50.258Z,2.28
2023-03-16T15:56:21.950Z,1.90
2023-03-16T15:58:49.170Z,2.50
2023-03-16T16:01:26.259Z,2.10
2023-03-16T16:03:54.343Z,1.93
2023-03-16T16:06:22.188Z,1.92
2023-03-16T16:08:48.876Z,1.90
2023-03-16T16:11:17.033Z,2.20
2023-03-16T16:13:45.145Z,2.08
2023-03-16T16:16:13.945Z,2.10
2023-03-16T16:18:41.169Z,2.10
2023-03-16T16:21:15.201Z,2.20
2023-03-16T16:23:42.824Z,2.10
2023-03-16T16:26:16.234Z,2.65
2023-03-16T16:28:43.123Z,2.60
2023-03-16T16:31:15.965Z,2.47
2023-03-16T16:33:42.538Z,1.85
2023-03-16T16:36:17.753Z,2.40
2023-03-16T16:38:44.322Z,2.13
2023-03-16T16:41:25.086Z,1.90
2023-03-16T16:43:52.996Z,2.20
2023-03-16T16:46:22.521Z,2.08
2023-03-16T16:48:57.546Z,2.30
2023-03-16T16:51:26.832Z,2.13
2023-03-16T16:53:55.693Z,2.00
2023-03-16T16:56:28.334Z,3.63
2023-03-16T16:58:55.787Z,4.88
2023-03-16T17:01:40.599Z,1.98
2023-03-16T17:04:14.386Z,2.00
2023-03-16T17:06:41.168Z,3.20
2023-03-16T17:09:08.849Z,2.40
2023-03-16T17:11:37.244Z,2.40
2023-03-16T17:14:06.379Z,1.80
2023-03-16T17:16:36.908Z,2.38
2023-03-16T17:19:03.943Z,2.27
2023-03-16T17:21:31.412Z,1.80
2023-03-16T17:24:00.274Z,1.80
2023-03-16T17:26:34.333Z,2.00
2023-03-16T17:29:17.344Z,1.67
2023-03-16T17:31:43.944Z,1.77
2023-03-16T17:34:17.286Z,1.80
2023-03-16T17:36:44.579Z,1.30
2023-03-16T17:39:27.068Z,1.52
2023-03-16T17:42:01.425Z,1.60
2023-03-16T17:44:33.511Z,1.53
2023-03-16T17:47:00.246Z,1.92
2023-03-16T17:49:28.736Z,2.00
2023-03-16T17:51:55.870Z,2.10
2023-03-16T17:54:22.394Z,1.42
2023-03-16T17:56:52.136Z,2.10
2023-03-16T17:59:21.143Z,1.45
2023-03-16T18:01:48.295Z,1.40
2023-03-16T18:04:21.131Z,1.80
2023-03-16T18:06:48.079Z,2.33
2023-03-16T18:09:16.356Z,1.70
2023-03-16T18:11:47.463Z,1.80
2023-03-16T18:14:36.175Z,1.40
2023-03-16T18:17:18.828Z,1.70
2023-03-16T18:19:45.610Z,3.15
2023-03-16T18:22:20.617Z,2.10
2023-03-16T18:24:48.549Z,2.08
2023-03-16T18:27:15.979Z,1.88
2023-03-16T18:29:43.037Z,1.90
2023-03-16T18:32:25.232Z,1.95
2023-03-16T18:34:53.010Z,2.23
2023-03-16T18:37:23.128Z,2.35
2023-03-16T18:39:51.512Z,2.35
2023-03-16T18:42:27.711Z,2.20
2023-03-16T18:44:54.305Z,2.10
2023-03-16T18:47:23.716Z,1.70
2023-03-16T18:49:53.604Z,1.60
2023-03-16T18:52:25.348Z,2.35
2023-03-16T18:54:53.188Z,2.00
2023-03-16T18:57:23.472Z,2.00
2023-03-16T18:59:50.917Z,2.40
2023-03-16T19:02:31.141Z,2.00
2023-03-16T19:05:03.154Z,2.53
2023-03-16T19:07:36.717Z,2.30
2023-03-16T19:10:13.595Z,1.98
2023-03-16T19:12:40.218Z,2.30
2023-03-16T19:15:21.827Z,3.13
2023-03-16T19:17:49.170Z,3.08
2023-03-16T19:20:17.772Z,2.90
2023-03-16T19:22:47.198Z,3.10
2023-03-16T19:25:20.312Z,3.10
2023-03-16T19:27:49.999Z,2.10
2023-03-16T19:30:26.463Z,2.33
2023-03-16T19:32:54.288Z,2.58
2023-03-16T19:35:22.548Z,3.10
2023-03-16T19:37:49.685Z,2.60
2023-03-16T19:40:19.714Z,2.92
2023-03-16T19:42:47.263Z,3.08
2023-03-16T19:45:21.105Z,2.55
2023-03-16T19:47:47.792Z,2.92
2023-03-16T19:50:21.037Z,2.97
2023-03-16T19:52:48.518Z,3.05
2023-03-16T19:55:17.799Z,2.47
2023-03-16T19:57:46.216Z,2.40
2023-03-16T20:00:26.628Z,3.17
2023-03-16T20:02:57.708Z,2.50
2023-03-16T20:05:26.897Z,2.88
2023-03-16T20:07:55.208Z,2.88
2023-03-16T20:10:27.234Z,3.25
2023-03-16T20:12:58.774Z,3.17
2023-03-16T20:15:32.277Z,3.60
2023-03-16T20:17:59.897Z,3.03
2023-03-16T20:20:29.022Z,3.35
2023-03-16T20:22:59.187Z,2.85
2023-03-16T20:25:30.694Z,3.53
2023-03-16T20:28:01.432Z,4.70
2023-03-16T20:30:29.591Z,5.72
2023-03-16T20:32:56.791Z,4.20
2023-03-16T20:35:27.337Z,3.55
2023-03-16T20:37:55.269Z,4.13
2023-03-16T20:40:22.991Z,3.80
2023-03-16T20:42:52.208Z,3.25
2023-03-16T20:45:25.956Z,3.55
2023-03-16T20:47:53.633Z,3.60
2023-03-16T20:50:23.817Z,3.03
2023-03-16T20:52:50.659Z,4.20
2023-03-16T20:55:19.725Z,3.38
2023-03-16T20:57:47.507Z,3.80
2023-03-16T21:00:38.800Z,3.25
2023-03-16T21:03:22.295Z,3.05
2023-03-16T21:05:50.795Z,3.47
2023-03-16T21:08:17.892Z,2.80
2023-03-16T21:10:46.571Z,3.35
2023-03-16T21:13:20.372Z,3.40
2023-03-16T21:15:49.973Z,3.28
2023-03-16T21:18:19.802Z,3.23
2023-03-16T21:20:48.557Z,3.15
2023-03-16T21:23:20.882Z,3.15
2023-03-16T21:25:56.627Z,3.20
2023-03-16T21:28:28.828Z,3.22
2023-03-16T21:30:57.648Z,3.50
2023-03-16T21:33:30.645Z,3.42
2023-03-16T21:35:58.527Z,2.92
2023-03-16T21:38:27.898Z,3.25
2023-03-16T21:40:54.459Z,2.78
2023-03-16T21:43:21.121Z,2.57
2023-03-16T21:45:48.622Z,2.85
2023-03-16T21:48:21.545Z,2.80
2023-03-16T21:50:49.707Z,2.80
2023-03-16T21:53:25.766Z,2.70
2023-03-16T21:55:53.380Z,3.20
2023-03-16T21:58:20.527Z,3.33
2023-03-16T22:00:48.156Z,3.13
2023-03-16T22:03:47.684Z,2.75
2023-03-16T22:06:16.659Z,2.40
2023-03-16T22:08:43.149Z,2.40
2023-03-16T22:11:16.355Z,2.58
2023-03-16T22:13:42.847Z,3.40
2023-03-16T22:16:15.903Z,4.13
2023-03-16T22:18:43.132Z,3.28
2023-03-16T22:21:22.767Z,2.70
2023-03-16T22:23:49.386Z,2.85
2023-03-16T22:26:18.477Z,2.63
2023-03-16T22:28:46.467Z,2.88
2023-03-16T22:31:16.617Z,2.95
2023-03-16T22:33:45.753Z,3.70
2023-03-16T22:36:17.645Z,2.20
2023-03-16T22:38:45.861Z,2.50
2023-03-16T22:41:15.520Z,2.30
2023-03-16T22:43:44.444Z,2.75
2023-03-16T22:46:18.964Z,2.40
2023-03-16T22:48:45.910Z,2.30
2023-03-16T22:51:20.333Z,2.35
2023-03-16T22:53:47.025Z,2.33
2023-03-16T22:56:13.742Z,2.17
2023-03-16T22:58:49.714Z,2.10
2023-03-16T23:01:19.276Z,2.70
2023-03-16T23:03:48.282Z,2.42
2023-03-16T23:06:17.853Z,2.40
2023-03-16T23:08:44.709Z,2.63
2023-03-16T23:11:34.407Z,2.27
2023-03-16T23:14:01.498Z,2.65
2023-03-16T23:16:33.179Z,2.40
2023-03-16T23:19:00.114Z,3.05
2023-03-16T23:21:29.024Z,3.00
2023-03-16T23:24:03.491Z,2.67
2023-03-16T23:26:31.752Z,2.25
2023-03-16T23:28:58.677Z,2.47
2023-03-16T23:31:27.233Z,2.28
2023-03-16T23:33:53.806Z,2.55
2023-03-16T23:36:23.018Z,3.17
2023-03-16T23:38:50.415Z,2.10
2023-03-16T23:41:21.565Z,2.35
2023-03-16T23:43:48.743Z,2.38
2023-03-16T23:46:18.598Z,2.13
2023-03-16T23:48:47.382Z,2.53
2023-03-16T23:51:37.067Z,2.30
2023-03-16T23:54:18.013Z,2.42
2023-03-16T23:56:44.569Z,2.70
2023-03-16T23:59:11.159Z,2.00
